Randolph Center, Vermont
Current Conditions -  °F | °C
As of 3:02 AM on Saturday 25 Oct 2014 (Local Time) from KMPV Reporting Station
Haze Haze  
Wind Chill: 34°   Ceiling: 100
Heat Index: 34°   Visibility: 1mi
Dew Point: 33°   Wind: 0mph
Humidity: 96%   Direction: NA
Pressure: 29.8"   Gusts: NA
Location:  43.94°N, 72.61°W
Report Text: KMPV 250702Z AUTO 00000KT 1SM BR VV001 01/01 A2980 RMK AO2 T00110006 $
Loading
Personal Weather Stations






























Interactive Weather Map
Tropical Storm Tracking
New forecast layout! Learn more

10-Day Weather Forecast

Advertisements
Track Severe Weather on mobile